Main page
METAR-TAF:

METAR-TAF

Airports :

Benson, England

RAF Benson

latitude: 51-37N, longitude: 001-05W, elevation: 63 m

Current weather observation

The report was made 1 hour and 5 minutes ago, at 17:50 UTC
Wind 11 kt from the East/Northeast
Temperature 12°C
Humidity 58%
Pressure 1022 hPa
Visibility 10 km or more

METAR: EGUB 261750Z AUTO 07011KT 9999 // BKN190/// 12/04 Q1022

Time: 19:55 (18:55 UTC)

Forecast

The report was made 27 hours and 28 minutes ago, at 15:27 UTC
Forecast valid from 25 at 15 UTC to 25 at 19 UTC
Wind 14 kt from the North/Northeast
Visibility 10 km or more
no clouds below 1500 m and no cumulonimbus
Temporary
from 25 at 15 UTC to 25 at 19 UTC
Wind 16 kt from the North/Northeast with gusts up to 26 kt

TAF: EGUB 251527Z 2515/2519 03014KT CAVOK TEMPO 2515/2519 03016G26KT

Weather observations and forecasts of more than 4000 airports (METAR and TAF reports).

The available stations are represented by yellow and red dots on the map.

Hover mouse over dot to see the name of the station.

Then click to see weather observations and forecasts.

To change the map : click on the green buttons with a black cross to zoom in, on the green button with a dash to zoom out, or on the green arrows for adjacent maps.


METAR-TAF: